sensor_id;sensor_type;location;lat;lon;timestamp;temperature;humidity
22065;DHT22;11197;53.110;8.468;2023-11-21T00:00:01;9.80;99.90
22065;DHT22;11197;53.110;8.468;2023-11-21T00:02:27;9.80;99.90
22065;DHT22;11197;53.110;8.468;2023-11-21T00:04:53;9.80;99.90
22065;DHT22;11197;53.110;8.468;2023-11-21T00:07:19;9.80;99.90
22065;DHT22;11197;53.110;8.468;2023-11-21T00:09:46;9.80;99.90
22065;DHT22;11197;53.110;8.468;2023-11-21T00:12:12;9.80;99.90
22065;DHT22;11197;53.110;8.468;2023-11-21T00:14:39;9.80;99.90
22065;DHT22;11197;53.110;8.468;2023-11-21T00:17:06;9.80;99.90
22065;DHT22;11197;53.110;8.468;2023-11-21T00:19:32;9.80;99.90
22065;DHT22;11197;53.110;8.468;2023-11-21T00:21:58;9.80;99.90
22065;DHT22;11197;53.110;8.468;2023-11-21T00:24:25;9.80;99.90
22065;DHT22;11197;53.110;8.468;2023-11-21T00:26:51;9.80;99.90
22065;DHT22;11197;53.110;8.468;2023-11-21T00:29:18;9.80;99.90
22065;DHT22;11197;53.110;8.468;2023-11-21T00:31:44;9.80;99.90
22065;DHT22;11197;53.110;8.468;2023-11-21T00:34:12;9.80;99.90
22065;DHT22;11197;53.110;8.468;2023-11-21T00:36:38;9.80;99.90
22065;DHT22;11197;53.110;8.468;2023-11-21T00:39:04;9.80;99.90
22065;DHT22;11197;53.110;8.468;2023-11-21T00:41:31;9.80;99.90
22065;DHT22;11197;53.110;8.468;2023-11-21T00:43:57;9.80;99.90
22065;DHT22;11197;53.110;8.468;2023-11-21T00:46:25;9.80;99.90
22065;DHT22;11197;53.110;8.468;2023-11-21T00:48:52;9.80;99.90
22065;DHT22;11197;53.110;8.468;2023-11-21T00:51:20;9.80;99.90
22065;DHT22;11197;53.110;8.468;2023-11-21T00:53:46;9.80;99.90
22065;DHT22;11197;53.110;8.468;2023-11-21T00:56:12;9.80;99.90
22065;DHT22;11197;53.110;8.468;2023-11-21T00:58:39;9.80;99.90
22065;DHT22;11197;53.110;8.468;2023-11-21T01:01:08;9.80;99.90
22065;DHT22;11197;53.110;8.468;2023-11-21T01:03:33;9.80;99.90
22065;DHT22;11197;53.110;8.468;2023-11-21T01:05:59;9.80;99.90
22065;DHT22;11197;53.110;8.468;2023-11-21T01:08:25;9.80;99.90
22065;DHT22;11197;53.110;8.468;2023-11-21T01:10:51;9.80;99.90
22065;DHT22;11197;53.110;8.468;2023-11-21T01:13:17;9.80;99.90
22065;DHT22;11197;53.110;8.468;2023-11-21T01:15:42;9.80;99.90
22065;DHT22;11197;53.110;8.468;2023-11-21T01:18:08;9.80;99.90
22065;DHT22;11197;53.110;8.468;2023-11-21T01:20:34;9.80;99.90
22065;DHT22;11197;53.110;8.468;2023-11-21T01:23:00;9.80;99.90
22065;DHT22;11197;53.110;8.468;2023-11-21T01:25:27;9.80;99.90
22065;DHT22;11197;53.110;8.468;2023-11-21T01:27:52;9.80;99.90
22065;DHT22;11197;53.110;8.468;2023-11-21T01:30:18;9.80;99.90
22065;DHT22;11197;53.110;8.468;2023-11-21T01:32:44;9.80;99.90
22065;DHT22;11197;53.110;8.468;2023-11-21T01:35:10;9.80;99.90
22065;DHT22;11197;53.110;8.468;2023-11-21T01:37:39;9.80;99.90
22065;DHT22;11197;53.110;8.468;2023-11-21T01:40:05;9.80;99.90
22065;DHT22;11197;53.110;8.468;2023-11-21T01:42:35;9.80;99.90
22065;DHT22;11197;53.110;8.468;2023-11-21T01:45:01;9.80;99.90
22065;DHT22;11197;53.110;8.468;2023-11-21T01:47:34;9.80;99.90
22065;DHT22;11197;53.110;8.468;2023-11-21T01:50:01;9.80;99.90
22065;DHT22;11197;53.110;8.468;2023-11-21T01:52:27;9.80;99.90
22065;DHT22;11197;53.110;8.468;2023-11-21T01:54:55;9.80;99.90
22065;DHT22;11197;53.110;8.468;2023-11-21T01:57:21;9.80;99.90
22065;DHT22;11197;53.110;8.468;2023-11-21T01:59:48;9.80;99.90
22065;DHT22;11197;53.110;8.468;2023-11-21T02:02:15;9.80;99.90
22065;DHT22;11197;53.110;8.468;2023-11-21T02:04:41;9.80;99.90
22065;DHT22;11197;53.110;8.468;2023-11-21T02:07:07;9.80;99.90
22065;DHT22;11197;53.110;8.468;2023-11-21T02:09:33;9.80;99.90
22065;DHT22;11197;53.110;8.468;2023-11-21T02:12:00;9.80;99.90
22065;DHT22;11197;53.110;8.468;2023-11-21T02:14:26;9.80;99.90
22065;DHT22;11197;53.110;8.468;2023-11-21T02:16:54;9.80;99.90
22065;DHT22;11197;53.110;8.468;2023-11-21T02:19:22;9.80;99.90
22065;DHT22;11197;53.110;8.468;2023-11-21T02:21:56;9.80;99.90
22065;DHT22;11197;53.110;8.468;2023-11-21T02:24:25;9.80;99.90
22065;DHT22;11197;53.110;8.468;2023-11-21T02:26:51;9.80;99.90
22065;DHT22;11197;53.110;8.468;2023-11-21T02:29:20;9.80;99.90
22065;DHT22;11197;53.110;8.468;2023-11-21T02:31:54;9.80;99.90
22065;DHT22;11197;53.110;8.468;2023-11-21T02:34:22;9.80;99.90
22065;DHT22;11197;53.110;8.468;2023-11-21T02:36:48;9.80;99.90
22065;DHT22;11197;53.110;8.468;2023-11-21T02:39:17;9.80;99.90
22065;DHT22;11197;53.110;8.468;2023-11-21T02:41:44;9.80;99.90
22065;DHT22;11197;53.110;8.468;2023-11-21T02:44:10;9.80;99.90
22065;DHT22;11197;53.110;8.468;2023-11-21T02:46:36;9.80;99.90
22065;DHT22;11197;53.110;8.468;2023-11-21T02:49:03;9.70;99.90
22065;DHT22;11197;53.110;8.468;2023-11-21T02:51:30;9.80;99.90
22065;DHT22;11197;53.110;8.468;2023-11-21T02:53:56;9.70;99.90
22065;DHT22;11197;53.110;8.468;2023-11-21T02:56:27;9.80;99.90
22065;DHT22;11197;53.110;8.468;2023-11-21T02:58:55;9.80;99.90
22065;DHT22;11197;53.110;8.468;2023-11-21T03:01:22;9.80;99.90
22065;DHT22;11197;53.110;8.468;2023-11-21T03:03:49;9.80;99.90
22065;DHT22;11197;53.110;8.468;2023-11-21T03:06:19;9.80;99.90
22065;DHT22;11197;53.110;8.468;2023-11-21T03:08:46;9.80;99.90
22065;DHT22;11197;53.110;8.468;2023-11-21T03:11:12;9.70;99.90
22065;DHT22;11197;53.110;8.468;2023-11-21T03:13:41;9.80;99.90
22065;DHT22;11197;53.110;8.468;2023-11-21T03:16:09;9.80;99.90
22065;DHT22;11197;53.110;8.468;2023-11-21T03:18:34;9.80;99.90
22065;DHT22;11197;53.110;8.468;2023-11-21T03:21:01;9.80;99.90
22065;DHT22;11197;53.110;8.468;2023-11-21T03:23:28;9.80;99.90
22065;DHT22;11197;53.110;8.468;2023-11-21T03:25:53;9.80;99.90
22065;DHT22;11197;53.110;8.468;2023-11-21T03:28:19;9.80;99.90
22065;DHT22;11197;53.110;8.468;2023-11-21T03:30:45;9.80;99.90
22065;DHT22;11197;53.110;8.468;2023-11-21T03:33:11;9.80;99.90
22065;DHT22;11197;53.110;8.468;2023-11-21T03:35:38;9.80;99.90
22065;DHT22;11197;53.110;8.468;2023-11-21T03:38:03;9.70;99.90
22065;DHT22;11197;53.110;8.468;2023-11-21T03:40:30;9.80;99.90
22065;DHT22;11197;53.110;8.468;2023-11-21T03:42:57;9.80;99.90
22065;DHT22;11197;53.110;8.468;2023-11-21T03:45:23;9.80;99.90
22065;DHT22;11197;53.110;8.468;2023-11-21T03:47:49;9.80;99.90
22065;DHT22;11197;53.110;8.468;2023-11-21T03:50:15;9.80;99.90
22065;DHT22;11197;53.110;8.468;2023-11-21T03:52:43;9.80;99.90
22065;DHT22;11197;53.110;8.468;2023-11-21T03:55:08;9.80;99.90
22065;DHT22;11197;53.110;8.468;2023-11-21T03:57:36;9.80;99.90
22065;DHT22;11197;53.110;8.468;2023-11-21T04:00:03;9.80;99.90
22065;DHT22;11197;53.110;8.468;2023-11-21T04:02:37;9.80;99.90
22065;DHT22;11197;53.110;8.468;2023-11-21T04:05:03;9.80;99.90
22065;DHT22;11197;53.110;8.468;2023-11-21T04:07:30;9.80;99.90
22065;DHT22;11197;53.110;8.468;2023-11-21T04:09:56;9.80;99.90
22065;DHT22;11197;53.110;8.468;2023-11-21T04:12:22;9.80;99.90
22065;DHT22;11197;53.110;8.468;2023-11-21T04:14:47;9.80;99.90
22065;DHT22;11197;53.110;8.468;2023-11-21T04:17:13;9.80;99.90
22065;DHT22;11197;53.110;8.468;2023-11-21T04:19:39;9.80;99.90
22065;DHT22;11197;53.110;8.468;2023-11-21T04:22:05;9.80;99.90
22065;DHT22;11197;53.110;8.468;2023-11-21T04:24:31;9.80;99.90
22065;DHT22;11197;53.110;8.468;2023-11-21T04:26:56;9.80;99.90
22065;DHT22;11197;53.110;8.468;2023-11-21T04:29:22;9.80;99.90
22065;DHT22;11197;53.110;8.468;2023-11-21T04:31:48;9.80;99.90
22065;DHT22;11197;53.110;8.468;2023-11-21T04:34:14;9.80;99.90
22065;DHT22;11197;53.110;8.468;2023-11-21T04:36:40;9.70;99.90
22065;DHT22;11197;53.110;8.468;2023-11-21T04:39:06;9.70;99.90
22065;DHT22;11197;53.110;8.468;2023-11-21T04:41:32;9.70;99.90
22065;DHT22;11197;53.110;8.468;2023-11-21T04:43:58;9.70;99.90
22065;DHT22;11197;53.110;8.468;2023-11-21T04:46:26;9.70;99.90
22065;DHT22;11197;53.110;8.468;2023-11-21T04:48:52;9.70;99.90
22065;DHT22;11197;53.110;8.468;2023-11-21T04:51:18;9.70;99.90
22065;DHT22;11197;53.110;8.468;2023-11-21T04:53:43;9.70;99.90
22065;DHT22;11197;53.110;8.468;2023-11-21T04:58:50;9.70;99.90
22065;DHT22;11197;53.110;8.468;2023-11-21T05:01:16;9.60;99.90
22065;DHT22;11197;53.110;8.468;2023-11-21T05:03:42;9.60;99.90
22065;DHT22;11197;53.110;8.468;2023-11-21T05:06:09;9.60;99.90
22065;DHT22;11197;53.110;8.468;2023-11-21T05:08:35;9.60;99.90
22065;DHT22;11197;53.110;8.468;2023-11-21T05:13:54;9.50;99.90
22065;DHT22;11197;53.110;8.468;2023-11-21T05:16:21;9.60;99.90
22065;DHT22;11197;53.110;8.468;2023-11-21T05:18:48;9.50;99.90
22065;DHT22;11197;53.110;8.468;2023-11-21T05:21:16;9.50;99.90
22065;DHT22;11197;53.110;8.468;2023-11-21T05:23:41;9.50;99.90
22065;DHT22;11197;53.110;8.468;2023-11-21T05:26:07;9.50;99.90
22065;DHT22;11197;53.110;8.468;2023-11-21T05:28:33;9.40;99.90
22065;DHT22;11197;53.110;8.468;2023-11-21T05:30:59;9.40;99.90
22065;DHT22;11197;53.110;8.468;2023-11-21T05:33:25;9.40;99.90
22065;DHT22;11197;53.110;8.468;2023-11-21T05:35:50;9.30;99.90
22065;DHT22;11197;53.110;8.468;2023-11-21T05:38:16;9.30;99.90
22065;DHT22;11197;53.110;8.468;2023-11-21T05:40:42;9.30;99.90
22065;DHT22;11197;53.110;8.468;2023-11-21T05:43:09;9.30;99.90
22065;DHT22;11197;53.110;8.468;2023-11-21T05:45:35;9.30;99.90
22065;DHT22;11197;53.110;8.468;2023-11-21T05:48:01;9.30;99.90
22065;DHT22;11197;53.110;8.468;2023-11-21T05:50:28;9.30;99.90
22065;DHT22;11197;53.110;8.468;2023-11-21T05:52:54;9.30;99.90
22065;DHT22;11197;53.110;8.468;2023-11-21T05:55:22;9.20;99.90
22065;DHT22;11197;53.110;8.468;2023-11-21T05:57:51;9.20;99.90
22065;DHT22;11197;53.110;8.468;2023-11-21T06:00:17;9.20;99.90
22065;DHT22;11197;53.110;8.468;2023-11-21T06:02:47;9.20;99.90
22065;DHT22;11197;53.110;8.468;2023-11-21T06:05:17;9.20;99.90
22065;DHT22;11197;53.110;8.468;2023-11-21T06:07:44;9.20;99.90
22065;DHT22;11197;53.110;8.468;2023-11-21T06:10:11;9.20;99.90
22065;DHT22;11197;53.110;8.468;2023-11-21T06:12:38;9.20;99.90
22065;DHT22;11197;53.110;8.468;2023-11-21T06:15:06;9.20;99.90
22065;DHT22;11197;53.110;8.468;2023-11-21T06:17:35;9.20;99.90
22065;DHT22;11197;53.110;8.468;2023-11-21T06:20:06;9.20;99.90
22065;DHT22;11197;53.110;8.468;2023-11-21T06:22:42;9.10;99.90
22065;DHT22;11197;53.110;8.468;2023-11-21T06:25:09;9.10;99.90
22065;DHT22;11197;53.110;8.468;2023-11-21T06:27:38;9.10;99.90
22065;DHT22;11197;53.110;8.468;2023-11-21T06:30:04;9.10;99.90
22065;DHT22;11197;53.110;8.468;2023-11-21T06:32:32;9.10;99.90
22065;DHT22;11197;53.110;8.468;2023-11-21T06:34:58;9.10;99.90
22065;DHT22;11197;53.110;8.468;2023-11-21T06:37:27;9.10;99.90
22065;DHT22;11197;53.110;8.468;2023-11-21T06:39:54;9.00;99.90
22065;DHT22;11197;53.110;8.468;2023-11-21T06:42:20;9.00;99.90
22065;DHT22;11197;53.110;8.468;2023-11-21T06:44:46;9.00;99.90
22065;DHT22;11197;53.110;8.468;2023-11-21T06:47:13;8.90;99.90
22065;DHT22;11197;53.110;8.468;2023-11-21T06:49:39;8.90;99.90
22065;DHT22;11197;53.110;8.468;2023-11-21T06:52:05;8.90;99.90
22065;DHT22;11197;53.110;8.468;2023-11-21T06:54:31;8.90;99.90
22065;DHT22;11197;53.110;8.468;2023-11-21T06:56:58;8.90;99.90
22065;DHT22;11197;53.110;8.468;2023-11-21T06:59:24;8.90;99.90
22065;DHT22;11197;53.110;8.468;2023-11-21T07:01:50;8.80;99.90
22065;DHT22;11197;53.110;8.468;2023-11-21T07:04:16;8.80;99.90
22065;DHT22;11197;53.110;8.468;2023-11-21T07:06:42;8.80;99.90
22065;DHT22;11197;53.110;8.468;2023-11-21T07:09:09;8.70;99.90
22065;DHT22;11197;53.110;8.468;2023-11-21T07:11:35;8.70;99.90
22065;DHT22;11197;53.110;8.468;2023-11-21T07:14:00;8.70;99.90
22065;DHT22;11197;53.110;8.468;2023-11-21T07:16:34;8.60;99.90
22065;DHT22;11197;53.110;8.468;2023-11-21T07:19:05;8.60;99.90
22065;DHT22;11197;53.110;8.468;2023-11-21T07:21:34;8.60;99.90
22065;DHT22;11197;53.110;8.468;2023-11-21T07:24:02;8.60;99.90
22065;DHT22;11197;53.110;8.468;2023-11-21T07:26:28;8.60;99.90
22065;DHT22;11197;53.110;8.468;2023-11-21T07:28:54;8.60;99.90
22065;DHT22;11197;53.110;8.468;2023-11-21T07:31:20;8.60;99.90
22065;DHT22;11197;53.110;8.468;2023-11-21T07:33:46;8.60;99.90
22065;DHT22;11197;53.110;8.468;2023-11-21T07:36:13;8.50;99.90
22065;DHT22;11197;53.110;8.468;2023-11-21T07:38:39;8.50;99.90
22065;DHT22;11197;53.110;8.468;2023-11-21T07:41:05;8.50;99.90
22065;DHT22;11197;53.110;8.468;2023-11-21T07:43:34;8.50;99.90
22065;DHT22;11197;53.110;8.468;2023-11-21T07:46:04;8.50;99.90
22065;DHT22;11197;53.110;8.468;2023-11-21T07:48:30;8.50;99.90
22065;DHT22;11197;53.110;8.468;2023-11-21T07:50:57;8.50;99.90
22065;DHT22;11197;53.110;8.468;2023-11-21T07:53:24;8.50;99.90
22065;DHT22;11197;53.110;8.468;2023-11-21T07:56:05;8.50;99.90
22065;DHT22;11197;53.110;8.468;2023-11-21T07:58:31;8.50;99.90
22065;DHT22;11197;53.110;8.468;2023-11-21T08:00:59;8.50;99.90
22065;DHT22;11197;53.110;8.468;2023-11-21T08:03:25;8.50;99.90
22065;DHT22;11197;53.110;8.468;2023-11-21T08:05:58;8.50;99.90
22065;DHT22;11197;53.110;8.468;2023-11-21T08:08:29;8.50;99.90
22065;DHT22;11197;53.110;8.468;2023-11-21T08:10:55;8.50;99.90
22065;DHT22;11197;53.110;8.468;2023-11-21T08:13:27;8.50;99.90
22065;DHT22;11197;53.110;8.468;2023-11-21T08:15:57;8.50;99.90
22065;DHT22;11197;53.110;8.468;2023-11-21T08:18:27;8.50;99.90
22065;DHT22;11197;53.110;8.468;2023-11-21T08:20:54;8.50;99.90
22065;DHT22;11197;53.110;8.468;2023-11-21T08:23:20;8.50;99.90
22065;DHT22;11197;53.110;8.468;2023-11-21T08:25:46;8.50;99.90
22065;DHT22;11197;53.110;8.468;2023-11-21T08:28:12;8.50;99.90
22065;DHT22;11197;53.110;8.468;2023-11-21T08:30:39;8.50;99.90
22065;DHT22;11197;53.110;8.468;2023-11-21T08:33:07;8.50;99.90
22065;DHT22;11197;53.110;8.468;2023-11-21T08:35:34;8.50;99.90
22065;DHT22;11197;53.110;8.468;2023-11-21T08:38:00;8.60;99.90
22065;DHT22;11197;53.110;8.468;2023-11-21T08:40:26;8.50;99.90
22065;DHT22;11197;53.110;8.468;2023-11-21T08:42:51;8.50;99.90
22065;DHT22;11197;53.110;8.468;2023-11-21T08:45:19;8.50;99.90
22065;DHT22;11197;53.110;8.468;2023-11-21T08:47:45;8.50;99.90
22065;DHT22;11197;53.110;8.468;2023-11-21T08:50:11;8.50;99.90
22065;DHT22;11197;53.110;8.468;2023-11-21T08:52:41;8.50;99.90
22065;DHT22;11197;53.110;8.468;2023-11-21T08:55:08;8.50;99.90
22065;DHT22;11197;53.110;8.468;2023-11-21T08:57:35;8.50;99.90
22065;DHT22;11197;53.110;8.468;2023-11-21T09:00:05;8.60;99.90
22065;DHT22;11197;53.110;8.468;2023-11-21T09:02:33;8.60;99.90
22065;DHT22;11197;53.110;8.468;2023-11-21T09:05:00;8.60;99.90
22065;DHT22;11197;53.110;8.468;2023-11-21T09:07:29;8.60;99.90
22065;DHT22;11197;53.110;8.468;2023-11-21T09:09:54;8.60;99.90
22065;DHT22;11197;53.110;8.468;2023-11-21T09:12:20;8.60;99.90
22065;DHT22;11197;53.110;8.468;2023-11-21T09:14:47;8.60;99.90
22065;DHT22;11197;53.110;8.468;2023-11-21T09:17:13;8.60;99.90
22065;DHT22;11197;53.110;8.468;2023-11-21T09:19:42;8.60;99.90
22065;DHT22;11197;53.110;8.468;2023-11-21T09:22:17;8.60;99.90
22065;DHT22;11197;53.110;8.468;2023-11-21T09:24:43;8.60;99.90
22065;DHT22;11197;53.110;8.468;2023-11-21T09:27:09;8.60;99.90
22065;DHT22;11197;53.110;8.468;2023-11-21T09:29:35;8.60;99.90
22065;DHT22;11197;53.110;8.468;2023-11-21T09:32:04;8.60;99.90
22065;DHT22;11197;53.110;8.468;2023-11-21T09:34:37;8.60;99.90
22065;DHT22;11197;53.110;8.468;2023-11-21T09:37:04;8.60;99.90
22065;DHT22;11197;53.110;8.468;2023-11-21T09:39:32;8.60;99.90
22065;DHT22;11197;53.110;8.468;2023-11-21T09:44:57;8.60;99.90
22065;DHT22;11197;53.110;8.468;2023-11-21T09:47:24;8.60;99.90
22065;DHT22;11197;53.110;8.468;2023-11-21T09:49:54;8.60;99.90
22065;DHT22;11197;53.110;8.468;2023-11-21T09:52:26;8.70;99.90
22065;DHT22;11197;53.110;8.468;2023-11-21T09:54:52;8.70;99.90
22065;DHT22;11197;53.110;8.468;2023-11-21T09:57:23;8.70;99.90
22065;DHT22;11197;53.110;8.468;2023-11-21T09:59:55;8.70;99.90
22065;DHT22;11197;53.110;8.468;2023-11-21T10:02:33;8.70;99.90
22065;DHT22;11197;53.110;8.468;2023-11-21T10:05:02;8.70;99.90
22065;DHT22;11197;53.110;8.468;2023-11-21T10:07:30;8.70;99.90
22065;DHT22;11197;53.110;8.468;2023-11-21T10:09:59;8.70;99.90
22065;DHT22;11197;53.110;8.468;2023-11-21T10:12:27;8.70;99.90
22065;DHT22;11197;53.110;8.468;2023-11-21T10:14:54;8.70;99.90
22065;DHT22;11197;53.110;8.468;2023-11-21T10:17:25;8.80;99.90
22065;DHT22;11197;53.110;8.468;2023-11-21T10:19:56;8.80;99.90
22065;DHT22;11197;53.110;8.468;2023-11-21T10:22:24;8.80;99.90
22065;DHT22;11197;53.110;8.468;2023-11-21T10:24:50;8.80;99.90
22065;DHT22;11197;53.110;8.468;2023-11-21T10:27:16;8.80;99.90
22065;DHT22;11197;53.110;8.468;2023-11-21T10:29:42;8.80;99.90
22065;DHT22;11197;53.110;8.468;2023-11-21T10:32:08;8.80;99.90
22065;DHT22;11197;53.110;8.468;2023-11-21T10:34:35;8.80;99.90
22065;DHT22;11197;53.110;8.468;2023-11-21T10:37:11;8.80;99.90
22065;DHT22;11197;53.110;8.468;2023-11-21T10:39:39;8.80;99.90
22065;DHT22;11197;53.110;8.468;2023-11-21T10:42:08;8.90;99.90
22065;DHT22;11197;53.110;8.468;2023-11-21T10:44:35;8.80;99.90
22065;DHT22;11197;53.110;8.468;2023-11-21T10:47:02;8.80;99.90
22065;DHT22;11197;53.110;8.468;2023-11-21T10:49:29;8.80;99.90
22065;DHT22;11197;53.110;8.468;2023-11-21T10:51:55;8.80;99.90
22065;DHT22;11197;53.110;8.468;2023-11-21T10:54:23;8.80;99.90
22065;DHT22;11197;53.110;8.468;2023-11-21T10:56:56;8.80;99.90
22065;DHT22;11197;53.110;8.468;2023-11-21T10:59:23;8.80;99.90
22065;DHT22;11197;53.110;8.468;2023-11-21T11:01:51;8.80;99.90
22065;DHT22;11197;53.110;8.468;2023-11-21T11:04:21;8.80;99.90
22065;DHT22;11197;53.110;8.468;2023-11-21T11:06:55;8.80;99.90
22065;DHT22;11197;53.110;8.468;2023-11-21T11:09:22;8.90;99.90
22065;DHT22;11197;53.110;8.468;2023-11-21T11:11:48;8.90;99.90
22065;DHT22;11197;53.110;8.468;2023-11-21T11:14:15;8.90;99.90
22065;DHT22;11197;53.110;8.468;2023-11-21T11:16:41;8.90;99.90
22065;DHT22;11197;53.110;8.468;2023-11-21T11:19:09;8.90;99.90
22065;DHT22;11197;53.110;8.468;2023-11-21T11:21:52;8.90;99.90
22065;DHT22;11197;53.110;8.468;2023-11-21T11:27:23;9.00;99.90
22065;DHT22;11197;53.110;8.468;2023-11-21T11:30:16;8.90;99.90
22065;DHT22;11197;53.110;8.468;2023-11-21T11:32:56;8.90;99.90
22065;DHT22;11197;53.110;8.468;2023-11-21T11:36:13;9.00;99.90
22065;DHT22;11197;53.110;8.468;2023-11-21T11:38:21;9.00;99.90
22065;DHT22;11197;53.110;8.468;2023-11-21T11:40:52;9.00;99.90
22065;DHT22;11197;53.110;8.468;2023-11-21T11:43:25;8.90;99.90
22065;DHT22;11197;53.110;8.468;2023-11-21T11:45:51;9.00;99.90
22065;DHT22;11197;53.110;8.468;2023-11-21T11:48:21;9.00;99.90
22065;DHT22;11197;53.110;8.468;2023-11-21T11:51:04;9.00;99.90
22065;DHT22;11197;53.110;8.468;2023-11-21T11:53:38;9.00;99.90
22065;DHT22;11197;53.110;8.468;2023-11-21T11:56:26;9.00;99.90
22065;DHT22;11197;53.110;8.468;2023-11-21T11:58:57;9.00;99.90
22065;DHT22;11197;53.110;8.468;2023-11-21T12:01:24;9.00;99.90
22065;DHT22;11197;53.110;8.468;2023-11-21T12:06:42;8.90;99.90
22065;DHT22;11197;53.110;8.468;2023-11-21T12:09:23;9.00;99.90
22065;DHT22;11197;53.110;8.468;2023-11-21T12:11:49;9.00;99.90
22065;DHT22;11197;53.110;8.468;2023-11-21T12:14:15;9.00;99.90
22065;DHT22;11197;53.110;8.468;2023-11-21T12:16:42;9.00;99.90
22065;DHT22;11197;53.110;8.468;2023-11-21T12:19:11;8.90;99.90
22065;DHT22;11197;53.110;8.468;2023-11-21T12:21:37;8.90;99.90
22065;DHT22;11197;53.110;8.468;2023-11-21T12:24:04;8.90;99.90
22065;DHT22;11197;53.110;8.468;2023-11-21T12:26:36;8.90;99.90
22065;DHT22;11197;53.110;8.468;2023-11-21T12:29:02;8.90;99.90
22065;DHT22;11197;53.110;8.468;2023-11-21T12:31:30;8.90;99.90
22065;DHT22;11197;53.110;8.468;2023-11-21T12:33:56;8.80;99.90
22065;DHT22;11197;53.110;8.468;2023-11-21T12:36:23;8.80;99.90
22065;DHT22;11197;53.110;8.468;2023-11-21T12:38:48;8.80;99.90
22065;DHT22;11197;53.110;8.468;2023-11-21T12:41:16;8.80;99.90
22065;DHT22;11197;53.110;8.468;2023-11-21T12:43:43;8.90;99.90
22065;DHT22;11197;53.110;8.468;2023-11-21T12:46:10;8.90;99.90
22065;DHT22;11197;53.110;8.468;2023-11-21T12:48:37;8.90;99.90
22065;DHT22;11197;53.110;8.468;2023-11-21T12:51:06;8.90;99.90
22065;DHT22;11197;53.110;8.468;2023-11-21T12:53:32;8.90;99.90
22065;DHT22;11197;53.110;8.468;2023-11-21T12:56:05;8.90;99.90
22065;DHT22;11197;53.110;8.468;2023-11-21T12:58:31;8.90;99.90
22065;DHT22;11197;53.110;8.468;2023-11-21T13:00:59;8.80;99.90
22065;DHT22;11197;53.110;8.468;2023-11-21T13:03:25;8.80;99.90
22065;DHT22;11197;53.110;8.468;2023-11-21T13:05:51;8.80;99.90
22065;DHT22;11197;53.110;8.468;2023-11-21T13:08:23;8.80;99.90
22065;DHT22;11197;53.110;8.468;2023-11-21T13:10:54;8.80;99.90
22065;DHT22;11197;53.110;8.468;2023-11-21T13:13:21;8.80;99.90
22065;DHT22;11197;53.110;8.468;2023-11-21T13:15:49;8.80;99.90
22065;DHT22;11197;53.110;8.468;2023-11-21T13:18:15;8.80;99.90
22065;DHT22;11197;53.110;8.468;2023-11-21T13:20:41;8.80;99.90
22065;DHT22;11197;53.110;8.468;2023-11-21T13:23:09;8.80;99.90
22065;DHT22;11197;53.110;8.468;2023-11-21T13:25:40;8.80;99.90
22065;DHT22;11197;53.110;8.468;2023-11-21T13:28:07;8.80;99.90
22065;DHT22;11197;53.110;8.468;2023-11-21T13:30:33;8.80;99.90
22065;DHT22;11197;53.110;8.468;2023-11-21T13:33:00;8.80;99.90
22065;DHT22;11197;53.110;8.468;2023-11-21T13:35:32;8.80;99.90
22065;DHT22;11197;53.110;8.468;2023-11-21T13:38:05;8.80;99.90
22065;DHT22;11197;53.110;8.468;2023-11-21T13:40:32;8.80;99.90
22065;DHT22;11197;53.110;8.468;2023-11-21T13:43:00;8.80;99.90
22065;DHT22;11197;53.110;8.468;2023-11-21T13:45:29;8.80;99.90
22065;DHT22;11197;53.110;8.468;2023-11-21T13:47:56;8.80;99.90
22065;DHT22;11197;53.110;8.468;2023-11-21T13:50:28;8.80;99.90
22065;DHT22;11197;53.110;8.468;2023-11-21T13:53:01;8.80;99.90
22065;DHT22;11197;53.110;8.468;2023-11-21T13:55:44;8.80;99.90
22065;DHT22;11197;53.110;8.468;2023-11-21T13:58:11;8.70;99.90
22065;DHT22;11197;53.110;8.468;2023-11-21T14:00:42;8.80;99.90
22065;DHT22;11197;53.110;8.468;2023-11-21T14:03:14;8.80;99.90
22065;DHT22;11197;53.110;8.468;2023-11-21T14:05:46;8.80;99.90
22065;DHT22;11197;53.110;8.468;2023-11-21T14:08:13;8.80;99.90
22065;DHT22;11197;53.110;8.468;2023-11-21T14:10:42;8.80;99.90
22065;DHT22;11197;53.110;8.468;2023-11-21T14:13:09;8.80;99.90
22065;DHT22;11197;53.110;8.468;2023-11-21T14:15:41;8.80;99.90
22065;DHT22;11197;53.110;8.468;2023-11-21T14:18:12;8.80;99.90
22065;DHT22;11197;53.110;8.468;2023-11-21T14:20:40;8.80;99.90
22065;DHT22;11197;53.110;8.468;2023-11-21T14:23:06;8.80;99.90
22065;DHT22;11197;53.110;8.468;2023-11-21T14:25:36;8.80;99.90
22065;DHT22;11197;53.110;8.468;2023-11-21T14:28:03;8.80;99.90
22065;DHT22;11197;53.110;8.468;2023-11-21T14:30:30;8.80;99.90
22065;DHT22;11197;53.110;8.468;2023-11-21T14:32:58;8.80;99.90
22065;DHT22;11197;53.110;8.468;2023-11-21T14:35:24;8.80;99.90
22065;DHT22;11197;53.110;8.468;2023-11-21T14:37:50;8.80;99.90
22065;DHT22;11197;53.110;8.468;2023-11-21T14:40:16;8.80;99.90
22065;DHT22;11197;53.110;8.468;2023-11-21T14:42:43;8.80;99.90
22065;DHT22;11197;53.110;8.468;2023-11-21T14:45:12;8.80;99.90
22065;DHT22;11197;53.110;8.468;2023-11-21T14:47:40;8.70;99.90
22065;DHT22;11197;53.110;8.468;2023-11-21T14:50:11;8.70;99.90
22065;DHT22;11197;53.110;8.468;2023-11-21T14:52:55;8.70;99.90
22065;DHT22;11197;53.110;8.468;2023-11-21T14:55:24;8.70;99.90
22065;DHT22;11197;53.110;8.468;2023-11-21T14:58:05;8.70;99.90
22065;DHT22;11197;53.110;8.468;2023-11-21T15:00:31;8.70;99.90
22065;DHT22;11197;53.110;8.468;2023-11-21T15:03:04;8.60;99.90
22065;DHT22;11197;53.110;8.468;2023-11-21T15:05:30;8.60;99.90
22065;DHT22;11197;53.110;8.468;2023-11-21T15:07:56;8.60;99.90
22065;DHT22;11197;53.110;8.468;2023-11-21T15:10:34;8.60;99.90
22065;DHT22;11197;53.110;8.468;2023-11-21T15:13:25;8.70;99.90
22065;DHT22;11197;53.110;8.468;2023-11-21T15:15:53;8.70;99.90
22065;DHT22;11197;53.110;8.468;2023-11-21T15:18:25;8.70;99.90
22065;DHT22;11197;53.110;8.468;2023-11-21T15:20:52;8.80;99.90
22065;DHT22;11197;53.110;8.468;2023-11-21T15:23:17;8.80;99.90
22065;DHT22;11197;53.110;8.468;2023-11-21T15:25:45;8.80;99.90
22065;DHT22;11197;53.110;8.468;2023-11-21T15:28:10;8.90;99.90
22065;DHT22;11197;53.110;8.468;2023-11-21T15:30:36;8.90;99.90
22065;DHT22;11197;53.110;8.468;2023-11-21T15:33:02;8.90;99.90
22065;DHT22;11197;53.110;8.468;2023-11-21T15:35:29;8.90;99.90
22065;DHT22;11197;53.110;8.468;2023-11-21T15:37:55;8.90;99.90
22065;DHT22;11197;53.110;8.468;2023-11-21T15:40:24;8.90;99.90
22065;DHT22;11197;53.110;8.468;2023-11-21T15:42:50;8.90;99.90
22065;DHT22;11197;53.110;8.468;2023-11-21T15:45:16;8.90;99.90
22065;DHT22;11197;53.110;8.468;2023-11-21T15:47:44;8.90;99.90
22065;DHT22;11197;53.110;8.468;2023-11-21T15:50:10;8.90;99.90
22065;DHT22;11197;53.110;8.468;2023-11-21T15:52:36;8.90;99.90
22065;DHT22;11197;53.110;8.468;2023-11-21T15:55:02;8.90;99.90
22065;DHT22;11197;53.110;8.468;2023-11-21T15:57:28;8.90;99.90
22065;DHT22;11197;53.110;8.468;2023-11-21T15:59:54;8.90;99.90
22065;DHT22;11197;53.110;8.468;2023-11-21T16:02:19;8.90;99.90